Arklow Wind — EIKZ — position and weather

sailwx.info

Track history (hours):
 
Tides and Currents Weather Stations Pressure Air Temp Water Temp Dewpoint Dewpoint Depression Visibility Wind Speed Wind Dir Waves Ship Positions

Arklow Wind

Last reported at 2016-Dec-01 04:25 UTC. Time now 2016-Dec-02 20:05 UTC.
Position N 52°39' W 009°06'.

Length 136 m; draft 5 m.

Type: Cargo ship. MMSI: 250506000.

Date/timePositionNaut miles runAvg speedWind from/ knotsBaromVisibWave heightAir tempDewpointWater temp
2016-Dec-01 04:25N 52°39' W 009°06'29 9.4
2016-Dec-01 01:18N 52°30' W 009°52'8 9.6
2016-Dec-01 00:31N 52°26' W 010°03'52 8.6
2016-Nov-30 18:28N 51°37' W 010°30'910.1
2016-Nov-30 17:33N 51°30' W 010°20'1010.1
2016-Nov-30 16:32N 51°24' W 010°06'1010.3
2016-Nov-30 15:33N 51°18' W 009°53'1110.5
2016-Nov-30 14:33N 51°13' W 009°38'1110.8
2016-Nov-30 13:33N 51°10' W 009°22'1111.2
2016-Nov-30 12:33N 51°06' W 009°05'3310.8
2016-Nov-30 09:32N 50°54' W 008°17'1110.9
2016-Nov-30 08:30N 50°50' W 007°60'1010.8
2016-Nov-30 07:33N 50°46' W 007°45'1210.8
2016-Nov-30 06:26N 50°42' W 007°27'1010.8
2016-Nov-30 05:31N 50°39' W 007°12'4510.9
2016-Nov-30 01:23N 50°23' W 006°06'910.3
2016-Nov-30 00:33N 50°19' W 005°54'1111.6
2016-Nov-29 23:33N 50°08' W 005°53'10 9.8
2016-Nov-29 22:32N 49°59' W 005°47'1211.9
2016-Nov-29 21:32N 49°56' W 005°29'1212.0
2016-Nov-29 20:31N 49°54' W 005°10'1211.9
2016-Nov-29 19:33N 49°56' W 004°53'1212.2
2016-Nov-29 18:33N 49°59' W 004°34'1212.2
2016-Nov-29 17:33N 50°01' W 004°16'1312.2
2016-Nov-29 16:30N 50°04' W 003°56'1212.6
2016-Nov-29 15:33N 50°07' W 003°38'1413.6
2016-Nov-29 14:34N 50°10' W 003°18'1414.3
2016-Nov-29 13:33N 50°13' W 002°56'1515.0
2016-Nov-29 12:33N 50°17' W 002°33'5012.6
2016-Nov-29 08:33N 50°27' W 001°16'10 9.7
2016-Nov-29 07:34N 50°30' W 001°01'1010.2
2016-Nov-29 06:34N 50°32' W 000°45'1211.7
2016-Nov-29 05:33N 50°31' W 000°27'1313.3
2016-Nov-29 04:33N 50°32' W 000°06'1414.1
2016-Nov-29 03:34N 50°35' E 000°16'1414.2
2016-Nov-29 02:33N 50°40' E 000°37'2613.0
2016-Nov-29 00:32N 50°55' E 001°10'1111.1
2016-Nov-28 23:34N 51°02' E 001°24'1111.3
2016-Nov-28 22:34N 51°07' E 001°40'1111.3
2016-Nov-28 21:33N 51°03' E 001°57'9 9.2
2016-Nov-28 20:33N 51°00' E 002°11'0 0.0
2016-Nov-28 19:22N 51°00' E 002°11'0 0.0
2016-Nov-28 18:34N 51°00' E 002°11'0 0.0
2016-Nov-28 17:33N 51°00' E 002°11'0 0.0
2016-Nov-28 16:33N 51°00' E 002°11'0 0.0
2016-Nov-28 15:33N 51°00' E 002°11'0 0.0
2016-Nov-28 14:33N 51°00' E 002°11'0 0.0
2016-Nov-28 13:33N 51°00' E 002°11'0 0.0
2016-Nov-28 12:33N 51°00' E 002°11'0 0.0
2016-Nov-28 11:30N 51°00' E 002°11'0 0.0
2016-Nov-28 10:33N 51°00' E 002°11'0 0.0
2016-Nov-28 09:33N 51°00' E 002°11'0 0.0
2016-Nov-28 08:33N 51°00' E 002°11'0 0.0
2016-Nov-28 07:33N 51°00' E 002°11'0 0.0
2016-Nov-28 06:33N 51°00' E 002°11'0 0.0
2016-Nov-28 05:33N 51°00' E 002°11'0 0.0
2016-Nov-28 04:33N 51°00' E 002°11'0 0.0
2016-Nov-28 03:33N 51°00' E 002°11'0 0.0
2016-Nov-28 02:33N 51°00' E 002°11'0 0.0
2016-Nov-28 01:33N 51°00' E 002°11'0 0.0
2016-Nov-28 00:33N 51°00' E 002°11'0 0.0
2016-Nov-27 23:33N 51°00' E 002°11'0 0.0
2016-Nov-27 22:33N 51°00' E 002°11'0 0.0
2016-Nov-27 21:33N 51°00' E 002°11'0 0.0
2016-Nov-27 20:30N 51°00' E 002°11'0 0.0
2016-Nov-27 19:33N 51°00' E 002°11'0 0.0
2016-Nov-27 18:33N 51°00' E 002°11'0 0.0
2016-Nov-27 17:33N 51°00' E 002°11'0 0.0
2016-Nov-27 16:33N 51°00' E 002°11'0 0.0
2016-Nov-27 15:33N 51°00' E 002°11'0 0.0
2016-Nov-27 14:33N 51°00' E 002°11'0 0.0
2016-Nov-27 13:33N 51°00' E 002°11'0 0.0
2016-Nov-27 12:33N 51°00' E 002°11'0 0.0
2016-Nov-27 11:32N 51°00' E 002°11'0 0.0
2016-Nov-27 10:33N 51°00' E 002°11'0 0.0
2016-Nov-27 09:33N 51°00' E 002°11'0 0.0
2016-Nov-27 08:30N 51°00' E 002°11'0 0.0
2016-Nov-27 07:33N 51°00' E 002°11'0 0.0
2016-Nov-27 06:30N 51°00' E 002°11'0 0.0
2016-Nov-27 05:26N 51°00' E 002°11'0 0.0
2016-Nov-27 02:23N 51°00' E 002°11'0 0.0
2016-Nov-27 01:32N 51°00' E 002°11'0 0.0
2016-Nov-27 00:32N 51°00' E 002°11'0 0.0
2016-Nov-26 23:32N 51°00' E 002°11'0 0.0
2016-Nov-26 22:32N 51°00' E 002°11'0 0.0
2016-Nov-26 21:29N 51°00' E 002°11'0 0.0
2016-Nov-26 20:26N 51°00' E 002°11'0 0.0
2016-Nov-26 19:32N 51°00' E 002°11'0 0.0
2016-Nov-26 18:26N 51°00' E 002°11'0 0.0
2016-Nov-26 17:26N 51°00' E 002°11'0 0.0
2016-Nov-26 16:29N 51°00' E 002°11'0 0.0
2016-Nov-26 15:32N 51°00' E 002°11'0 0.0
2016-Nov-26 14:17N 51°00' E 002°11'0 0.0
2016-Nov-26 13:32N 51°00' E 002°11'0 0.0
2016-Nov-26 12:32N 51°00' E 002°11'0 0.0
2016-Nov-26 11:32N 51°00' E 002°11'0 0.0
2016-Nov-26 10:32N 51°00' E 002°11'0 0.0
2016-Nov-26 09:32N 51°00' E 002°11'0 0.0
2016-Nov-26 08:32N 51°00' E 002°11'0 0.0
2016-Nov-26 07:32N 51°00' E 002°11'0 0.0
2016-Nov-26 06:32N 51°00' E 002°11'0 0.0
2016-Nov-26 05:32N 51°00' E 002°11'0 0.0
2016-Nov-26 04:32N 51°00' E 002°11'0 0.0
2016-Nov-26 03:29N 51°00' E 002°11'0 0.0
2016-Nov-26 02:29N 51°00' E 002°11'0 0.0
2016-Nov-26 01:32N 51°00' E 002°11'0 0.0
2016-Nov-26 00:32N 51°00' E 002°11'0 0.0
2016-Nov-25 23:32N 51°00' E 002°11'0 0.0
2016-Nov-25 22:32N 51°00' E 002°11'0 0.0
2016-Nov-25 21:32N 51°00' E 002°11'0 0.0
2016-Nov-25 20:29N 51°00' E 002°11'0 0.0
2016-Nov-25 19:29N 51°00' E 002°11'0 0.0
2016-Nov-25 18:32N 51°00' E 002°11'0 0.0
2016-Nov-25 17:32N 51°00' E 002°11'0 0.0
2016-Nov-25 16:32N 51°00' E 002°11'0 0.0
2016-Nov-25 15:32N 51°00' E 002°11'0 0.0
2016-Nov-25 14:23N 51°00' E 002°11'0 0.0
2016-Nov-25 13:28N 51°00' E 002°11'0 0.0
2016-Nov-25 12:31N 51°00' E 002°11'0 0.0
2016-Nov-25 11:31N 51°00' E 002°11'0 0.0
2016-Nov-25 10:31N 51°00' E 002°11'0 0.0
2016-Nov-25 09:22N 51°00' E 002°11'0 0.0
2016-Nov-25 08:31N 51°00' E 002°11'0 0.0
2016-Nov-25 07:28N 51°00' E 002°11'0 0.0
2016-Nov-25 06:28N 51°00' E 002°11'0 0.0
2016-Nov-25 05:28N 51°00' E 002°11'0 0.0
2016-Nov-25 04:22N 51°00' E 002°11'0 0.0
2016-Nov-25 03:19N 51°00' E 002°11'0 0.0
2016-Nov-25 02:31N 51°00' E 002°11'0 0.0
2016-Nov-25 01:31N 51°00' E 002°11'0 0.0
2016-Nov-25 00:31N 51°00' E 002°11'0 0.0
2016-Nov-24 23:31N 51°00' E 002°11'3 3.0
2016-Nov-24 22:31N 51°03' E 002°09'1010.2
2016-Nov-24 21:32N 51°02' E 001°53'1010.2
2016-Nov-24 20:32N 50°58' E 001°37'75 8.3
2016-Nov-24 11:31N 50°20' W 000°03'44 8.5
2016-Nov-24 06:22N 50°29' W 001°11'7410.6
2016-Nov-23 23:20N 50°12' W 003°04'7 9.3
2016-Nov-23 22:34N 50°10' W 003°15'9 9.1
2016-Nov-23 21:32N 50°08' W 003°29'9 9.0
2016-Nov-23 20:33N 50°07' W 003°43'10 9.5
2016-Nov-23 19:30N 50°05' W 003°58'1210.4
2016-Nov-23 18:22N 50°01' W 004°16'910.7
2016-Nov-23 17:33N 49°59' W 004°29'19310.2
2016-Nov-22 22:30N 51°08' W 009°14'2311.8
2016-Nov-22 20:33N 51°16' W 009°48'1211.6
2016-Nov-22 19:33N 51°23' W 010°03'  
Track history (hours):
 
Tides and Currents Weather Stations Pressure Air Temp Water Temp Dewpoint Dewpoint Depression Visibility Wind Speed Wind Dir Waves Ship Positions

Arklow Wind

Last reported at 2016-Dec-01 04:25 UTC. Time now 2016-Dec-02 20:05 UTC.
Position N 52°39' W 009°06'.

Length 136 m; draft 5 m.

Type: Cargo ship. MMSI: 250506000.

Date/timePositionNaut miles runAvg speedWind from/ knotsBaromVisibWave heightAir tempDewpointWater temp
2016-Dec-01 04:25N 52°39' W 009°06'29 9.4
2016-Dec-01 01:18N 52°30' W 009°52'8 9.6
2016-Dec-01 00:31N 52°26' W 010°03'52 8.6
2016-Nov-30 18:28N 51°37' W 010°30'910.1
2016-Nov-30 17:33N 51°30' W 010°20'1010.1
2016-Nov-30 16:32N 51°24' W 010°06'1010.3
2016-Nov-30 15:33N 51°18' W 009°53'1110.5
2016-Nov-30 14:33N 51°13' W 009°38'1110.8
2016-Nov-30 13:33N 51°10' W 009°22'1111.2
2016-Nov-30 12:33N 51°06' W 009°05'3310.8
2016-Nov-30 09:32N 50°54' W 008°17'1110.9
2016-Nov-30 08:30N 50°50' W 007°60'1010.8
2016-Nov-30 07:33N 50°46' W 007°45'1210.8
2016-Nov-30 06:26N 50°42' W 007°27'1010.8
2016-Nov-30 05:31N 50°39' W 007°12'4510.9
2016-Nov-30 01:23N 50°23' W 006°06'910.3
2016-Nov-30 00:33N 50°19' W 005°54'1111.6
2016-Nov-29 23:33N 50°08' W 005°53'10 9.8
2016-Nov-29 22:32N 49°59' W 005°47'1211.9
2016-Nov-29 21:32N 49°56' W 005°29'1212.0
2016-Nov-29 20:31N 49°54' W 005°10'1211.9
2016-Nov-29 19:33N 49°56' W 004°53'1212.2
2016-Nov-29 18:33N 49°59' W 004°34'1212.2
2016-Nov-29 17:33N 50°01' W 004°16'1312.2
2016-Nov-29 16:30N 50°04' W 003°56'1212.6
2016-Nov-29 15:33N 50°07' W 003°38'1413.6
2016-Nov-29 14:34N 50°10' W 003°18'1414.3
2016-Nov-29 13:33N 50°13' W 002°56'1515.0
2016-Nov-29 12:33N 50°17' W 002°33'5012.6
2016-Nov-29 08:33N 50°27' W 001°16'10 9.7
2016-Nov-29 07:34N 50°30' W 001°01'1010.2
2016-Nov-29 06:34N 50°32' W 000°45'1211.7
2016-Nov-29 05:33N 50°31' W 000°27'1313.3
2016-Nov-29 04:33N 50°32' W 000°06'1414.1
2016-Nov-29 03:34N 50°35' E 000°16'1414.2
2016-Nov-29 02:33N 50°40' E 000°37'2613.0
2016-Nov-29 00:32N 50°55' E 001°10'1111.1
2016-Nov-28 23:34N 51°02' E 001°24'1111.3
2016-Nov-28 22:34N 51°07' E 001°40'1111.3
2016-Nov-28 21:33N 51°03' E 001°57'9 9.2
2016-Nov-28 20:33N 51°00' E 002°11'0 0.0
2016-Nov-28 19:22N 51°00' E 002°11'0 0.0
2016-Nov-28 18:34N 51°00' E 002°11'0 0.0
2016-Nov-28 17:33N 51°00' E 002°11'0 0.0
2016-Nov-28 16:33N 51°00' E 002°11'0 0.0
2016-Nov-28 15:33N 51°00' E 002°11'0 0.0
2016-Nov-28 14:33N 51°00' E 002°11'0 0.0
2016-Nov-28 13:33N 51°00' E 002°11'0 0.0
2016-Nov-28 12:33N 51°00' E 002°11'0 0.0
2016-Nov-28 11:30N 51°00' E 002°11'0 0.0
2016-Nov-28 10:33N 51°00' E 002°11'0 0.0
2016-Nov-28 09:33N 51°00' E 002°11'0 0.0
2016-Nov-28 08:33N 51°00' E 002°11'0 0.0
2016-Nov-28 07:33N 51°00' E 002°11'0 0.0
2016-Nov-28 06:33N 51°00' E 002°11'0 0.0
2016-Nov-28 05:33N 51°00' E 002°11'0 0.0
2016-Nov-28 04:33N 51°00' E 002°11'0 0.0
2016-Nov-28 03:33N 51°00' E 002°11'0 0.0
2016-Nov-28 02:33N 51°00' E 002°11'0 0.0
2016-Nov-28 01:33N 51°00' E 002°11'0 0.0
2016-Nov-28 00:33N 51°00' E 002°11'0 0.0
2016-Nov-27 23:33N 51°00' E 002°11'0 0.0
2016-Nov-27 22:33N 51°00' E 002°11'0 0.0
2016-Nov-27 21:33N 51°00' E 002°11'0 0.0
2016-Nov-27 20:30N 51°00' E 002°11'0 0.0
2016-Nov-27 19:33N 51°00' E 002°11'0 0.0
2016-Nov-27 18:33N 51°00' E 002°11'0 0.0
2016-Nov-27 17:33N 51°00' E 002°11'0 0.0
2016-Nov-27 16:33N 51°00' E 002°11'0 0.0
2016-Nov-27 15:33N 51°00' E 002°11'0 0.0
2016-Nov-27 14:33N 51°00' E 002°11'0 0.0
2016-Nov-27 13:33N 51°00' E 002°11'0 0.0
2016-Nov-27 12:33N 51°00' E 002°11'0 0.0
2016-Nov-27 11:32N 51°00' E 002°11'0 0.0
2016-Nov-27 10:33N 51°00' E 002°11'0 0.0
2016-Nov-27 09:33N 51°00' E 002°11'0 0.0
2016-Nov-27 08:30N 51°00' E 002°11'0 0.0
2016-Nov-27 07:33N 51°00' E 002°11'0 0.0
2016-Nov-27 06:30N 51°00' E 002°11'0 0.0
2016-Nov-27 05:26N 51°00' E 002°11'0 0.0
2016-Nov-27 02:23N 51°00' E 002°11'0 0.0
2016-Nov-27 01:32N 51°00' E 002°11'0 0.0
2016-Nov-27 00:32N 51°00' E 002°11'0 0.0
2016-Nov-26 23:32N 51°00' E 002°11'0 0.0
2016-Nov-26 22:32N 51°00' E 002°11'0 0.0
2016-Nov-26 21:29N 51°00' E 002°11'0 0.0
2016-Nov-26 20:26N 51°00' E 002°11'0 0.0
2016-Nov-26 19:32N 51°00' E 002°11'0 0.0
2016-Nov-26 18:26N 51°00' E 002°11'0 0.0
2016-Nov-26 17:26N 51°00' E 002°11'0 0.0
2016-Nov-26 16:29N 51°00' E 002°11'0 0.0
2016-Nov-26 15:32N 51°00' E 002°11'0 0.0
2016-Nov-26 14:17N 51°00' E 002°11'0 0.0
2016-Nov-26 13:32N 51°00' E 002°11'0 0.0
2016-Nov-26 12:32N 51°00' E 002°11'0 0.0
2016-Nov-26 11:32N 51°00' E 002°11'0 0.0
2016-Nov-26 10:32N 51°00' E 002°11'0 0.0
2016-Nov-26 09:32N 51°00' E 002°11'0 0.0
2016-Nov-26 08:32N 51°00' E 002°11'0 0.0
2016-Nov-26 07:32N 51°00' E 002°11'0 0.0
2016-Nov-26 06:32N 51°00' E 002°11'0 0.0
2016-Nov-26 05:32N 51°00' E 002°11'0 0.0
2016-Nov-26 04:32N 51°00' E 002°11'0 0.0
2016-Nov-26 03:29N 51°00' E 002°11'0 0.0
2016-Nov-26 02:29N 51°00' E 002°11'0 0.0
2016-Nov-26 01:32N 51°00' E 002°11'0 0.0
2016-Nov-26 00:32N 51°00' E 002°11'0 0.0
2016-Nov-25 23:32N 51°00' E 002°11'0 0.0
2016-Nov-25 22:32N 51°00' E 002°11'0 0.0
2016-Nov-25 21:32N 51°00' E 002°11'0 0.0
2016-Nov-25 20:29N 51°00' E 002°11'0 0.0
2016-Nov-25 19:29N 51°00' E 002°11'0 0.0
2016-Nov-25 18:32N 51°00' E 002°11'0 0.0
2016-Nov-25 17:32N 51°00' E 002°11'0 0.0
2016-Nov-25 16:32N 51°00' E 002°11'0 0.0
2016-Nov-25 15:32N 51°00' E 002°11'0 0.0
2016-Nov-25 14:23N 51°00' E 002°11'0 0.0
2016-Nov-25 13:28N 51°00' E 002°11'0 0.0
2016-Nov-25 12:31N 51°00' E 002°11'0 0.0
2016-Nov-25 11:31N 51°00' E 002°11'0 0.0
2016-Nov-25 10:31N 51°00' E 002°11'0 0.0
2016-Nov-25 09:22N 51°00' E 002°11'0 0.0
2016-Nov-25 08:31N 51°00' E 002°11'0 0.0
2016-Nov-25 07:28N 51°00' E 002°11'0 0.0
2016-Nov-25 06:28N 51°00' E 002°11'0 0.0
2016-Nov-25 05:28N 51°00' E 002°11'0 0.0
2016-Nov-25 04:22N 51°00' E 002°11'0 0.0
2016-Nov-25 03:19N 51°00' E 002°11'0 0.0
2016-Nov-25 02:31N 51°00' E 002°11'0 0.0
2016-Nov-25 01:31N 51°00' E 002°11'0 0.0
2016-Nov-25 00:31N 51°00' E 002°11'0 0.0
2016-Nov-24 23:31N 51°00' E 002°11'3 3.0
2016-Nov-24 22:31N 51°03' E 002°09'1010.2
2016-Nov-24 21:32N 51°02' E 001°53'1010.2
2016-Nov-24 20:32N 50°58' E 001°37'75 8.3
2016-Nov-24 11:31N 50°20' W 000°03'44 8.5
2016-Nov-24 06:22N 50°29' W 001°11'7410.6
2016-Nov-23 23:20N 50°12' W 003°04'7 9.3
2016-Nov-23 22:34N 50°10' W 003°15'9 9.1
2016-Nov-23 21:32N 50°08' W 003°29'9 9.0
2016-Nov-23 20:33N 50°07' W 003°43'10 9.5
2016-Nov-23 19:30N 50°05' W 003°58'1210.4
2016-Nov-23 18:22N 50°01' W 004°16'910.7
2016-Nov-23 17:33N 49°59' W 004°29'19310.2
2016-Nov-22 22:30N 51°08' W 009°14'2311.8
2016-Nov-22 20:33N 51°16' W 009°48'1211.6
2016-Nov-22 19:33N 51°23' W 010°03'  

Dump ship's entire track history